Startpagina
METAR-TAF:

METAR-TAF

Vliegvelden :

Luchthaven Mayotte-Dzaoudzi Pamandzi

Dzaoudzi, Mayotte

breedte: 12-48S, lengte: 045-17E, hoogte: 8 m

Actueel weer

Dit bericht is 21 minuten geleden gemaakt, om 10:00 UTC
Wind 10 kt uit het oostnoordoosten, variërend tussen het noordnoordoosten en het oosten
Temperatuur 32°C
Vochtigheid 71%
Druk 1009 hPa
Zicht 10 km of meer
Verspreide wolken op 2300 ft

METAR: FMCZ 171000Z AUTO 06010KT 030V100 9999 SCT023 32/26 Q1009 NOSIG

Tijdstip: 13:21 (10:21 UTC)

Verwachting

Dit bericht is 5 uur en het 21 minuten geleden gemaakt, om 05:00 UTC
Verwachting geldig van 17 om 06 UTC tot 18 om 06 UTC
Wind 10 kt uit het noordoosten
Zicht 10 km of meer
Verspreide wolken op 2300 ft

TAF: FMCZ 170500Z 1706/1806 04010KT 9999 SCT023

Waarnemingen en weersverwachtingen van meer dan 4000 vliegvelden (METAR en TAF).

De beschikbare stations zijn de gele en rode punten op de kaart.

Ga met uw muis naar het station om de naam te zien.

Klik dan om waarnemingen en weersverwachtingen te zien.

kaart wijzigen: klik op de groene knoppen met een zwart kruis om in te zoomen, op de groene knop met een streepje om uit te zoomen of op de groene pijlen voor aangrenzende kaarten.


METAR-TAF: